sensor_id;sensor_type;location;lat;lon;timestamp;temperature;humidity
45643;DHT22;31358;46.008;11.144;2024-01-06T00:02:08;2.80;99.90
45643;DHT22;31358;46.008;11.144;2024-01-06T00:04:34;2.90;99.90
45643;DHT22;31358;46.008;11.144;2024-01-06T00:07:00;2.80;99.90
45643;DHT22;31358;46.008;11.144;2024-01-06T00:09:25;2.80;99.90
45643;DHT22;31358;46.008;11.144;2024-01-06T00:11:51;2.80;99.90
45643;DHT22;31358;46.008;11.144;2024-01-06T00:14:17;2.80;99.90
45643;DHT22;31358;46.008;11.144;2024-01-06T00:16:42;2.70;99.90
45643;DHT22;31358;46.008;11.144;2024-01-06T00:19:08;2.70;99.90
45643;DHT22;31358;46.008;11.144;2024-01-06T00:21:34;2.60;99.90
45643;DHT22;31358;46.008;11.144;2024-01-06T00:23:59;2.60;99.90
45643;DHT22;31358;46.008;11.144;2024-01-06T00:26:25;2.50;99.90
45643;DHT22;31358;46.008;11.144;2024-01-06T00:28:51;2.60;99.90
45643;DHT22;31358;46.008;11.144;2024-01-06T00:31:17;2.60;99.90
45643;DHT22;31358;46.008;11.144;2024-01-06T00:33:43;2.60;99.90
45643;DHT22;31358;46.008;11.144;2024-01-06T00:36:09;2.60;99.90
45643;DHT22;31358;46.008;11.144;2024-01-06T00:38:34;2.50;99.90
45643;DHT22;31358;46.008;11.144;2024-01-06T00:41:01;2.50;99.90
45643;DHT22;31358;46.008;11.144;2024-01-06T00:43:27;2.50;99.90
45643;DHT22;31358;46.008;11.144;2024-01-06T00:45:52;2.50;99.90
45643;DHT22;31358;46.008;11.144;2024-01-06T00:48:18;2.40;99.90
45643;DHT22;31358;46.008;11.144;2024-01-06T00:50:43;2.30;99.90
45643;DHT22;31358;46.008;11.144;2024-01-06T00:53:09;2.30;99.90
45643;DHT22;31358;46.008;11.144;2024-01-06T00:55:35;2.30;99.90
45643;DHT22;31358;46.008;11.144;2024-01-06T00:58:01;2.30;99.90
45643;DHT22;31358;46.008;11.144;2024-01-06T01:00:26;2.50;99.90
45643;DHT22;31358;46.008;11.144;2024-01-06T01:02:52;2.50;99.90
45643;DHT22;31358;46.008;11.144;2024-01-06T01:05:18;2.50;99.90
45643;DHT22;31358;46.008;11.144;2024-01-06T01:07:44;2.40;99.90
45643;DHT22;31358;46.008;11.144;2024-01-06T01:10:10;2.40;99.90
45643;DHT22;31358;46.008;11.144;2024-01-06T01:12:36;2.30;99.90
45643;DHT22;31358;46.008;11.144;2024-01-06T01:15:02;2.40;99.90
45643;DHT22;31358;46.008;11.144;2024-01-06T01:17:28;2.30;99.90
45643;DHT22;31358;46.008;11.144;2024-01-06T01:19:55;2.20;99.90
45643;DHT22;31358;46.008;11.144;2024-01-06T01:22:21;2.30;99.90
45643;DHT22;31358;46.008;11.144;2024-01-06T01:24:46;2.40;99.90
45643;DHT22;31358;46.008;11.144;2024-01-06T01:27:12;2.40;99.90
45643;DHT22;31358;46.008;11.144;2024-01-06T01:29:38;2.40;99.90
45643;DHT22;31358;46.008;11.144;2024-01-06T01:32:04;2.50;99.90
45643;DHT22;31358;46.008;11.144;2024-01-06T01:34:30;2.40;99.90
45643;DHT22;31358;46.008;11.144;2024-01-06T01:36:55;2.40;99.90
45643;DHT22;31358;46.008;11.144;2024-01-06T01:39:21;2.40;99.90
45643;DHT22;31358;46.008;11.144;2024-01-06T01:41:46;2.40;99.90
45643;DHT22;31358;46.008;11.144;2024-01-06T01:44:12;2.50;99.90
45643;DHT22;31358;46.008;11.144;2024-01-06T01:46:38;2.40;99.90
45643;DHT22;31358;46.008;11.144;2024-01-06T01:49:04;2.40;99.90
45643;DHT22;31358;46.008;11.144;2024-01-06T01:51:33;2.30;99.90
45643;DHT22;31358;46.008;11.144;2024-01-06T01:54:01;2.30;99.90
45643;DHT22;31358;46.008;11.144;2024-01-06T01:56:27;2.40;99.90
45643;DHT22;31358;46.008;11.144;2024-01-06T01:58:53;2.40;99.90
45643;DHT22;31358;46.008;11.144;2024-01-06T02:01:19;2.60;99.90
45643;DHT22;31358;46.008;11.144;2024-01-06T02:03:45;2.60;99.90
45643;DHT22;31358;46.008;11.144;2024-01-06T02:06:12;2.70;99.90
45643;DHT22;31358;46.008;11.144;2024-01-06T02:08:38;2.60;99.90
45643;DHT22;31358;46.008;11.144;2024-01-06T02:11:04;2.60;99.90
45643;DHT22;31358;46.008;11.144;2024-01-06T02:13:33;2.30;99.90
45643;DHT22;31358;46.008;11.144;2024-01-06T02:16:00;2.40;99.90
45643;DHT22;31358;46.008;11.144;2024-01-06T02:18:26;2.50;99.90
45643;DHT22;31358;46.008;11.144;2024-01-06T02:20:53;2.50;99.90
45643;DHT22;31358;46.008;11.144;2024-01-06T02:23:22;2.50;99.90
45643;DHT22;31358;46.008;11.144;2024-01-06T02:25:48;2.40;99.90
45643;DHT22;31358;46.008;11.144;2024-01-06T02:28:13;2.40;99.90
45643;DHT22;31358;46.008;11.144;2024-01-06T02:30:39;2.50;99.90
45643;DHT22;31358;46.008;11.144;2024-01-06T02:33:05;2.40;99.90
45643;DHT22;31358;46.008;11.144;2024-01-06T02:35:30;2.30;99.90
45643;DHT22;31358;46.008;11.144;2024-01-06T02:37:56;2.40;99.90
45643;DHT22;31358;46.008;11.144;2024-01-06T02:40:22;2.40;99.90
45643;DHT22;31358;46.008;11.144;2024-01-06T02:42:47;2.50;99.90
45643;DHT22;31358;46.008;11.144;2024-01-06T02:45:13;2.50;99.90
45643;DHT22;31358;46.008;11.144;2024-01-06T02:47:39;2.50;99.90
45643;DHT22;31358;46.008;11.144;2024-01-06T02:50:05;2.50;99.90
45643;DHT22;31358;46.008;11.144;2024-01-06T02:52:31;2.60;99.90
45643;DHT22;31358;46.008;11.144;2024-01-06T02:54:56;2.60;99.90
45643;DHT22;31358;46.008;11.144;2024-01-06T02:57:22;2.50;99.90
45643;DHT22;31358;46.008;11.144;2024-01-06T02:59:48;2.60;99.90
45643;DHT22;31358;46.008;11.144;2024-01-06T03:02:14;2.60;99.90
45643;DHT22;31358;46.008;11.144;2024-01-06T03:04:39;2.60;99.90
45643;DHT22;31358;46.008;11.144;2024-01-06T03:07:05;2.60;99.90
45643;DHT22;31358;46.008;11.144;2024-01-06T03:09:31;2.60;99.90
45643;DHT22;31358;46.008;11.144;2024-01-06T03:11:56;2.60;99.90
45643;DHT22;31358;46.008;11.144;2024-01-06T03:14:22;2.60;99.90
45643;DHT22;31358;46.008;11.144;2024-01-06T03:16:48;2.60;99.90
45643;DHT22;31358;46.008;11.144;2024-01-06T03:19:13;2.60;99.90
45643;DHT22;31358;46.008;11.144;2024-01-06T03:21:39;2.60;99.90
45643;DHT22;31358;46.008;11.144;2024-01-06T03:24:06;2.50;99.90
45643;DHT22;31358;46.008;11.144;2024-01-06T03:26:32;2.50;99.90
45643;DHT22;31358;46.008;11.144;2024-01-06T03:28:59;2.50;99.90
45643;DHT22;31358;46.008;11.144;2024-01-06T03:31:24;2.60;99.90
45643;DHT22;31358;46.008;11.144;2024-01-06T03:33:50;2.50;99.90
45643;DHT22;31358;46.008;11.144;2024-01-06T03:36:19;2.60;99.90
45643;DHT22;31358;46.008;11.144;2024-01-06T03:38:44;2.70;99.90
45643;DHT22;31358;46.008;11.144;2024-01-06T03:41:10;2.80;99.90
45643;DHT22;31358;46.008;11.144;2024-01-06T03:43:36;2.90;99.90
45643;DHT22;31358;46.008;11.144;2024-01-06T03:46:02;2.90;99.90
45643;DHT22;31358;46.008;11.144;2024-01-06T03:48:27;2.80;99.90
45643;DHT22;31358;46.008;11.144;2024-01-06T03:50:53;2.90;99.90
45643;DHT22;31358;46.008;11.144;2024-01-06T03:53:19;2.70;99.90
45643;DHT22;31358;46.008;11.144;2024-01-06T03:55:45;2.50;99.90
45643;DHT22;31358;46.008;11.144;2024-01-06T03:58:10;2.50;99.90
45643;DHT22;31358;46.008;11.144;2024-01-06T04:00:36;2.60;99.90
45643;DHT22;31358;46.008;11.144;2024-01-06T04:03:02;2.70;99.90
45643;DHT22;31358;46.008;11.144;2024-01-06T04:05:27;2.70;99.90
45643;DHT22;31358;46.008;11.144;2024-01-06T04:07:53;2.80;99.90
45643;DHT22;31358;46.008;11.144;2024-01-06T04:10:19;2.70;99.90
45643;DHT22;31358;46.008;11.144;2024-01-06T04:12:44;2.80;99.90
45643;DHT22;31358;46.008;11.144;2024-01-06T04:15:10;2.80;99.90
45643;DHT22;31358;46.008;11.144;2024-01-06T04:17:36;2.80;99.90
45643;DHT22;31358;46.008;11.144;2024-01-06T04:20:01;2.80;99.90
45643;DHT22;31358;46.008;11.144;2024-01-06T04:22:27;2.80;99.90
45643;DHT22;31358;46.008;11.144;2024-01-06T04:24:53;2.80;99.90
45643;DHT22;31358;46.008;11.144;2024-01-06T04:27:18;2.70;99.90
45643;DHT22;31358;46.008;11.144;2024-01-06T04:29:44;2.60;99.90
45643;DHT22;31358;46.008;11.144;2024-01-06T04:32:10;2.70;99.90
45643;DHT22;31358;46.008;11.144;2024-01-06T04:34:35;2.80;99.90
45643;DHT22;31358;46.008;11.144;2024-01-06T04:37:01;2.80;99.90
45643;DHT22;31358;46.008;11.144;2024-01-06T04:39:27;2.80;99.90
45643;DHT22;31358;46.008;11.144;2024-01-06T04:41:52;2.70;99.90
45643;DHT22;31358;46.008;11.144;2024-01-06T04:44:21;2.80;99.90
45643;DHT22;31358;46.008;11.144;2024-01-06T04:46:47;2.70;99.90
45643;DHT22;31358;46.008;11.144;2024-01-06T04:49:13;2.70;99.90
45643;DHT22;31358;46.008;11.144;2024-01-06T04:51:39;2.70;99.90
45643;DHT22;31358;46.008;11.144;2024-01-06T04:54:04;2.70;99.90
45643;DHT22;31358;46.008;11.144;2024-01-06T04:56:30;2.70;99.90
45643;DHT22;31358;46.008;11.144;2024-01-06T04:58:56;2.60;99.90
45643;DHT22;31358;46.008;11.144;2024-01-06T05:01:23;2.70;99.90
45643;DHT22;31358;46.008;11.144;2024-01-06T05:03:49;2.70;99.90
45643;DHT22;31358;46.008;11.144;2024-01-06T05:06:14;2.80;99.90
45643;DHT22;31358;46.008;11.144;2024-01-06T05:08:40;2.80;99.90
45643;DHT22;31358;46.008;11.144;2024-01-06T05:11:10;2.80;99.90
45643;DHT22;31358;46.008;11.144;2024-01-06T05:13:36;2.80;99.90
45643;DHT22;31358;46.008;11.144;2024-01-06T05:16:02;2.90;99.90
45643;DHT22;31358;46.008;11.144;2024-01-06T05:18:28;3.00;99.90
45643;DHT22;31358;46.008;11.144;2024-01-06T05:20:54;2.90;99.90
45643;DHT22;31358;46.008;11.144;2024-01-06T05:23:20;3.00;99.90
45643;DHT22;31358;46.008;11.144;2024-01-06T05:25:46;3.00;99.90
45643;DHT22;31358;46.008;11.144;2024-01-06T05:28:12;2.90;99.90
45643;DHT22;31358;46.008;11.144;2024-01-06T05:30:37;2.90;99.90
45643;DHT22;31358;46.008;11.144;2024-01-06T05:33:03;3.00;99.90
45643;DHT22;31358;46.008;11.144;2024-01-06T05:35:29;3.00;99.90
45643;DHT22;31358;46.008;11.144;2024-01-06T05:37:55;3.00;99.90
45643;DHT22;31358;46.008;11.144;2024-01-06T05:40:21;3.00;99.90
45643;DHT22;31358;46.008;11.144;2024-01-06T05:42:47;3.00;99.90
45643;DHT22;31358;46.008;11.144;2024-01-06T05:45:12;3.00;99.90
45643;DHT22;31358;46.008;11.144;2024-01-06T05:47:38;3.00;99.90
45643;DHT22;31358;46.008;11.144;2024-01-06T05:50:05;2.90;99.90
45643;DHT22;31358;46.008;11.144;2024-01-06T05:52:30;2.90;99.90
45643;DHT22;31358;46.008;11.144;2024-01-06T05:54:56;2.90;99.90
45643;DHT22;31358;46.008;11.144;2024-01-06T05:57:23;2.90;99.90
45643;DHT22;31358;46.008;11.144;2024-01-06T05:59:49;3.00;99.90
45643;DHT22;31358;46.008;11.144;2024-01-06T06:02:15;3.00;99.90
45643;DHT22;31358;46.008;11.144;2024-01-06T06:04:40;3.10;99.90
45643;DHT22;31358;46.008;11.144;2024-01-06T06:07:06;3.10;99.90
45643;DHT22;31358;46.008;11.144;2024-01-06T06:09:31;3.00;99.90
45643;DHT22;31358;46.008;11.144;2024-01-06T06:12:00;2.90;99.90
45643;DHT22;31358;46.008;11.144;2024-01-06T06:14:25;3.00;99.90
45643;DHT22;31358;46.008;11.144;2024-01-06T06:16:51;3.10;99.90
45643;DHT22;31358;46.008;11.144;2024-01-06T06:19:17;3.10;99.90
45643;DHT22;31358;46.008;11.144;2024-01-06T06:21:44;3.10;99.90
45643;DHT22;31358;46.008;11.144;2024-01-06T06:24:09;3.10;99.90
45643;DHT22;31358;46.008;11.144;2024-01-06T06:26:35;3.00;99.90
45643;DHT22;31358;46.008;11.144;2024-01-06T06:29:02;3.00;99.90
45643;DHT22;31358;46.008;11.144;2024-01-06T06:31:27;3.10;99.90
45643;DHT22;31358;46.008;11.144;2024-01-06T06:33:53;3.10;99.90
45643;DHT22;31358;46.008;11.144;2024-01-06T06:36:19;3.00;99.90
45643;DHT22;31358;46.008;11.144;2024-01-06T06:38:45;3.00;99.90
45643;DHT22;31358;46.008;11.144;2024-01-06T06:41:11;3.00;99.90
45643;DHT22;31358;46.008;11.144;2024-01-06T06:43:37;2.90;99.90
45643;DHT22;31358;46.008;11.144;2024-01-06T06:46:02;2.90;99.90
45643;DHT22;31358;46.008;11.144;2024-01-06T06:48:28;2.90;99.90
45643;DHT22;31358;46.008;11.144;2024-01-06T06:50:54;3.00;99.90
45643;DHT22;31358;46.008;11.144;2024-01-06T06:53:20;3.00;99.90
45643;DHT22;31358;46.008;11.144;2024-01-06T06:55:46;3.00;99.90
45643;DHT22;31358;46.008;11.144;2024-01-06T06:58:12;3.10;99.90
45643;DHT22;31358;46.008;11.144;2024-01-06T07:00:38;3.10;99.90
45643;DHT22;31358;46.008;11.144;2024-01-06T07:03:04;3.10;99.90
45643;DHT22;31358;46.008;11.144;2024-01-06T07:05:30;3.10;99.90
45643;DHT22;31358;46.008;11.144;2024-01-06T07:07:56;3.10;99.90
45643;DHT22;31358;46.008;11.144;2024-01-06T07:10:22;3.10;99.90
45643;DHT22;31358;46.008;11.144;2024-01-06T07:12:48;3.00;99.90
45643;DHT22;31358;46.008;11.144;2024-01-06T07:15:13;3.00;99.90
45643;DHT22;31358;46.008;11.144;2024-01-06T07:17:39;3.10;99.90
45643;DHT22;31358;46.008;11.144;2024-01-06T07:20:06;3.10;99.90
45643;DHT22;31358;46.008;11.144;2024-01-06T07:22:33;3.10;99.90
45643;DHT22;31358;46.008;11.144;2024-01-06T07:25:02;3.10;99.90
45643;DHT22;31358;46.008;11.144;2024-01-06T07:27:28;3.10;99.90
45643;DHT22;31358;46.008;11.144;2024-01-06T07:29:53;3.10;99.90
45643;DHT22;31358;46.008;11.144;2024-01-06T07:32:23;3.20;99.90
45643;DHT22;31358;46.008;11.144;2024-01-06T07:34:50;3.20;99.90
45643;DHT22;31358;46.008;11.144;2024-01-06T07:37:16;3.30;99.90
45643;DHT22;31358;46.008;11.144;2024-01-06T07:39:42;3.30;99.90
45643;DHT22;31358;46.008;11.144;2024-01-06T07:42:08;3.30;99.90
45643;DHT22;31358;46.008;11.144;2024-01-06T07:44:34;3.30;99.90
45643;DHT22;31358;46.008;11.144;2024-01-06T07:47:00;3.30;99.90
45643;DHT22;31358;46.008;11.144;2024-01-06T07:49:27;3.40;99.90
45643;DHT22;31358;46.008;11.144;2024-01-06T07:51:53;3.30;99.90
45643;DHT22;31358;46.008;11.144;2024-01-06T07:54:18;3.30;99.90
45643;DHT22;31358;46.008;11.144;2024-01-06T07:56:44;3.30;99.90
45643;DHT22;31358;46.008;11.144;2024-01-06T07:59:10;3.30;99.90
45643;DHT22;31358;46.008;11.144;2024-01-06T08:01:36;3.20;99.90
45643;DHT22;31358;46.008;11.144;2024-01-06T08:04:02;3.30;99.90
45643;DHT22;31358;46.008;11.144;2024-01-06T08:06:28;3.40;99.90
45643;DHT22;31358;46.008;11.144;2024-01-06T08:08:53;3.60;99.90
45643;DHT22;31358;46.008;11.144;2024-01-06T08:11:20;3.50;99.90
45643;DHT22;31358;46.008;11.144;2024-01-06T08:13:46;3.50;99.90
45643;DHT22;31358;46.008;11.144;2024-01-06T08:16:12;3.30;99.90
45643;DHT22;31358;46.008;11.144;2024-01-06T08:18:38;3.60;99.90
45643;DHT22;31358;46.008;11.144;2024-01-06T08:21:04;3.50;99.90
45643;DHT22;31358;46.008;11.144;2024-01-06T08:23:29;3.50;99.90
45643;DHT22;31358;46.008;11.144;2024-01-06T08:25:55;3.50;99.90
45643;DHT22;31358;46.008;11.144;2024-01-06T08:28:21;3.50;99.90
45643;DHT22;31358;46.008;11.144;2024-01-06T08:30:49;3.40;99.90
45643;DHT22;31358;46.008;11.144;2024-01-06T08:33:14;3.40;99.90
45643;DHT22;31358;46.008;11.144;2024-01-06T08:35:40;3.40;99.90
45643;DHT22;31358;46.008;11.144;2024-01-06T08:38:09;3.40;99.90
45643;DHT22;31358;46.008;11.144;2024-01-06T08:40:35;3.30;99.90
45643;DHT22;31358;46.008;11.144;2024-01-06T08:43:01;3.40;99.90
45643;DHT22;31358;46.008;11.144;2024-01-06T08:45:27;3.50;99.90
45643;DHT22;31358;46.008;11.144;2024-01-06T08:47:53;3.60;99.90
45643;DHT22;31358;46.008;11.144;2024-01-06T08:50:18;3.60;99.90
45643;DHT22;31358;46.008;11.144;2024-01-06T08:52:44;3.60;99.90
45643;DHT22;31358;46.008;11.144;2024-01-06T08:55:10;3.60;99.90
45643;DHT22;31358;46.008;11.144;2024-01-06T08:57:35;3.50;99.90
45643;DHT22;31358;46.008;11.144;2024-01-06T09:00:03;3.60;99.90
45643;DHT22;31358;46.008;11.144;2024-01-06T09:02:29;3.70;99.90
45643;DHT22;31358;46.008;11.144;2024-01-06T09:04:55;3.70;99.90
45643;DHT22;31358;46.008;11.144;2024-01-06T09:07:20;3.70;99.90
45643;DHT22;31358;46.008;11.144;2024-01-06T09:09:46;3.80;99.90
45643;DHT22;31358;46.008;11.144;2024-01-06T09:12:12;3.80;99.90
45643;DHT22;31358;46.008;11.144;2024-01-06T09:14:37;3.80;99.90
45643;DHT22;31358;46.008;11.144;2024-01-06T09:17:03;3.70;99.90
45643;DHT22;31358;46.008;11.144;2024-01-06T09:19:30;3.60;99.90
45643;DHT22;31358;46.008;11.144;2024-01-06T09:21:56;3.70;99.90
45643;DHT22;31358;46.008;11.144;2024-01-06T09:24:25;3.70;99.90
45643;DHT22;31358;46.008;11.144;2024-01-06T09:26:50;3.70;99.90
45643;DHT22;31358;46.008;11.144;2024-01-06T09:29:17;3.70;99.90
45643;DHT22;31358;46.008;11.144;2024-01-06T09:31:42;3.70;99.90
45643;DHT22;31358;46.008;11.144;2024-01-06T09:34:11;3.70;99.90
45643;DHT22;31358;46.008;11.144;2024-01-06T09:36:38;3.80;99.90
45643;DHT22;31358;46.008;11.144;2024-01-06T09:39:03;3.80;99.90
45643;DHT22;31358;46.008;11.144;2024-01-06T09:41:30;3.80;99.90
45643;DHT22;31358;46.008;11.144;2024-01-06T09:43:56;3.80;99.90
45643;DHT22;31358;46.008;11.144;2024-01-06T09:46:26;3.90;99.90
45643;DHT22;31358;46.008;11.144;2024-01-06T09:48:54;3.90;99.90
45643;DHT22;31358;46.008;11.144;2024-01-06T09:51:20;4.00;99.90
45643;DHT22;31358;46.008;11.144;2024-01-06T09:53:57;4.00;99.90
45643;DHT22;31358;46.008;11.144;2024-01-06T09:56:25;4.00;99.90
45643;DHT22;31358;46.008;11.144;2024-01-06T09:58:50;4.00;99.90
45643;DHT22;31358;46.008;11.144;2024-01-06T10:01:18;4.00;99.90
45643;DHT22;31358;46.008;11.144;2024-01-06T10:03:44;4.00;99.90
45643;DHT22;31358;46.008;11.144;2024-01-06T10:06:16;3.90;99.90
45643;DHT22;31358;46.008;11.144;2024-01-06T10:08:43;3.90;99.90
45643;DHT22;31358;46.008;11.144;2024-01-06T10:11:09;4.00;99.90
45643;DHT22;31358;46.008;11.144;2024-01-06T10:13:36;3.90;99.90
45643;DHT22;31358;46.008;11.144;2024-01-06T10:16:04;3.90;99.90
45643;DHT22;31358;46.008;11.144;2024-01-06T10:18:31;4.00;99.90
45643;DHT22;31358;46.008;11.144;2024-01-06T10:20:57;4.00;99.90
45643;DHT22;31358;46.008;11.144;2024-01-06T10:23:23;3.90;99.90
45643;DHT22;31358;46.008;11.144;2024-01-06T10:25:58;3.90;99.90
45643;DHT22;31358;46.008;11.144;2024-01-06T10:28:24;3.90;99.90
45643;DHT22;31358;46.008;11.144;2024-01-06T10:30:54;3.90;99.90
45643;DHT22;31358;46.008;11.144;2024-01-06T10:33:21;3.80;99.90
45643;DHT22;31358;46.008;11.144;2024-01-06T10:35:47;3.90;99.90
45643;DHT22;31358;46.008;11.144;2024-01-06T10:38:14;4.00;99.90
45643;DHT22;31358;46.008;11.144;2024-01-06T10:41:04;4.00;99.90
45643;DHT22;31358;46.008;11.144;2024-01-06T10:43:35;4.00;99.90
45643;DHT22;31358;46.008;11.144;2024-01-06T10:46:07;4.00;99.90
45643;DHT22;31358;46.008;11.144;2024-01-06T10:48:37;4.10;99.90
45643;DHT22;31358;46.008;11.144;2024-01-06T10:51:10;4.20;99.90
45643;DHT22;31358;46.008;11.144;2024-01-06T10:53:37;4.20;99.90
45643;DHT22;31358;46.008;11.144;2024-01-06T10:56:07;4.20;99.90
45643;DHT22;31358;46.008;11.144;2024-01-06T10:58:35;4.30;99.90
45643;DHT22;31358;46.008;11.144;2024-01-06T11:01:11;4.40;99.90
45643;DHT22;31358;46.008;11.144;2024-01-06T11:03:38;4.30;99.90
45643;DHT22;31358;46.008;11.144;2024-01-06T11:06:05;4.40;99.90
45643;DHT22;31358;46.008;11.144;2024-01-06T11:08:33;4.30;99.90
45643;DHT22;31358;46.008;11.144;2024-01-06T11:11:02;4.30;99.90
45643;DHT22;31358;46.008;11.144;2024-01-06T11:13:28;4.20;99.90
45643;DHT22;31358;46.008;11.144;2024-01-06T11:15:54;4.30;99.90
45643;DHT22;31358;46.008;11.144;2024-01-06T11:18:33;4.30;99.90
45643;DHT22;31358;46.008;11.144;2024-01-06T11:21:23;4.30;99.90
45643;DHT22;31358;46.008;11.144;2024-01-06T11:24:14;4.40;99.90
45643;DHT22;31358;46.008;11.144;2024-01-06T11:26:44;4.50;99.90
45643;DHT22;31358;46.008;11.144;2024-01-06T11:29:10;4.60;99.90
45643;DHT22;31358;46.008;11.144;2024-01-06T11:31:37;4.40;99.90
45643;DHT22;31358;46.008;11.144;2024-01-06T11:34:16;4.40;99.90
45643;DHT22;31358;46.008;11.144;2024-01-06T11:36:45;4.50;99.90
45643;DHT22;31358;46.008;11.144;2024-01-06T11:39:34;4.60;99.90
45643;DHT22;31358;46.008;11.144;2024-01-06T11:42:00;4.80;99.90
45643;DHT22;31358;46.008;11.144;2024-01-06T11:44:28;4.70;99.90
45643;DHT22;31358;46.008;11.144;2024-01-06T11:46:57;4.60;99.90
45643;DHT22;31358;46.008;11.144;2024-01-06T11:49:26;4.70;99.90
45643;DHT22;31358;46.008;11.144;2024-01-06T11:51:53;4.70;99.90
45643;DHT22;31358;46.008;11.144;2024-01-06T11:54:21;4.60;99.90
45643;DHT22;31358;46.008;11.144;2024-01-06T11:56:46;4.60;99.90
45643;DHT22;31358;46.008;11.144;2024-01-06T11:59:12;4.70;99.90
45643;DHT22;31358;46.008;11.144;2024-01-06T12:01:38;4.80;99.90
45643;DHT22;31358;46.008;11.144;2024-01-06T12:04:05;4.70;99.90
45643;DHT22;31358;46.008;11.144;2024-01-06T12:06:34;4.50;99.90
45643;DHT22;31358;46.008;11.144;2024-01-06T12:09:06;4.50;99.90
45643;DHT22;31358;46.008;11.144;2024-01-06T12:11:32;4.60;99.90
45643;DHT22;31358;46.008;11.144;2024-01-06T12:13:58;4.60;99.90
45643;DHT22;31358;46.008;11.144;2024-01-06T12:16:24;4.70;99.90
45643;DHT22;31358;46.008;11.144;2024-01-06T12:18:54;4.80;99.90
45643;DHT22;31358;46.008;11.144;2024-01-06T12:21:22;4.80;99.90
45643;DHT22;31358;46.008;11.144;2024-01-06T12:23:48;4.80;99.90
45643;DHT22;31358;46.008;11.144;2024-01-06T12:26:14;4.90;99.90
45643;DHT22;31358;46.008;11.144;2024-01-06T12:28:39;5.10;99.90
45643;DHT22;31358;46.008;11.144;2024-01-06T12:31:09;5.10;99.90
45643;DHT22;31358;46.008;11.144;2024-01-06T12:33:35;5.20;99.90
45643;DHT22;31358;46.008;11.144;2024-01-06T12:36:03;5.20;99.90
45643;DHT22;31358;46.008;11.144;2024-01-06T12:38:32;5.20;99.90
45643;DHT22;31358;46.008;11.144;2024-01-06T12:40:57;5.20;99.90
45643;DHT22;31358;46.008;11.144;2024-01-06T12:43:23;5.30;99.90
45643;DHT22;31358;46.008;11.144;2024-01-06T12:45:49;5.30;99.90
45643;DHT22;31358;46.008;11.144;2024-01-06T12:48:18;5.40;99.90
45643;DHT22;31358;46.008;11.144;2024-01-06T12:50:43;5.50;99.90
45643;DHT22;31358;46.008;11.144;2024-01-06T12:53:09;5.60;99.90
45643;DHT22;31358;46.008;11.144;2024-01-06T12:55:37;5.60;99.90
45643;DHT22;31358;46.008;11.144;2024-01-06T12:58:03;5.60;99.90
45643;DHT22;31358;46.008;11.144;2024-01-06T13:00:29;5.50;99.90
45643;DHT22;31358;46.008;11.144;2024-01-06T13:02:55;5.60;99.90
45643;DHT22;31358;46.008;11.144;2024-01-06T13:05:21;5.50;99.90
45643;DHT22;31358;46.008;11.144;2024-01-06T13:07:48;5.50;99.90
45643;DHT22;31358;46.008;11.144;2024-01-06T13:10:15;5.50;99.90
45643;DHT22;31358;46.008;11.144;2024-01-06T13:12:40;5.50;99.90
45643;DHT22;31358;46.008;11.144;2024-01-06T13:15:07;5.60;99.90
45643;DHT22;31358;46.008;11.144;2024-01-06T13:17:39;5.60;99.90
45643;DHT22;31358;46.008;11.144;2024-01-06T13:20:06;5.60;99.90
45643;DHT22;31358;46.008;11.144;2024-01-06T13:22:33;5.70;99.90
45643;DHT22;31358;46.008;11.144;2024-01-06T13:24:59;5.70;99.90
45643;DHT22;31358;46.008;11.144;2024-01-06T13:27:25;5.80;99.90
45643;DHT22;31358;46.008;11.144;2024-01-06T13:29:53;5.80;99.90
45643;DHT22;31358;46.008;11.144;2024-01-06T13:32:19;5.80;99.90
45643;DHT22;31358;46.008;11.144;2024-01-06T13:34:45;5.80;99.90
45643;DHT22;31358;46.008;11.144;2024-01-06T13:37:11;5.80;99.90
45643;DHT22;31358;46.008;11.144;2024-01-06T13:39:37;5.80;99.90
45643;DHT22;31358;46.008;11.144;2024-01-06T13:42:03;5.80;99.90
45643;DHT22;31358;46.008;11.144;2024-01-06T13:44:32;5.80;99.90
45643;DHT22;31358;46.008;11.144;2024-01-06T13:46:57;5.80;99.90
45643;DHT22;31358;46.008;11.144;2024-01-06T13:49:23;5.80;99.90
45643;DHT22;31358;46.008;11.144;2024-01-06T13:51:52;5.80;99.90
45643;DHT22;31358;46.008;11.144;2024-01-06T13:54:17;5.80;99.90
45643;DHT22;31358;46.008;11.144;2024-01-06T13:56:43;5.70;99.90
45643;DHT22;31358;46.008;11.144;2024-01-06T13:59:08;5.60;99.90
45643;DHT22;31358;46.008;11.144;2024-01-06T14:01:34;5.60;99.90
45643;DHT22;31358;46.008;11.144;2024-01-06T14:04:00;5.50;99.90
45643;DHT22;31358;46.008;11.144;2024-01-06T14:06:27;5.50;99.90
45643;DHT22;31358;46.008;11.144;2024-01-06T14:08:56;5.50;99.90
45643;DHT22;31358;46.008;11.144;2024-01-06T14:11:22;5.60;99.90
45643;DHT22;31358;46.008;11.144;2024-01-06T14:13:48;5.60;99.90
45643;DHT22;31358;46.008;11.144;2024-01-06T14:16:18;5.60;99.90
45643;DHT22;31358;46.008;11.144;2024-01-06T14:18:44;5.70;99.90
45643;DHT22;31358;46.008;11.144;2024-01-06T14:21:10;5.80;99.90
45643;DHT22;31358;46.008;11.144;2024-01-06T14:23:36;5.70;99.90
45643;DHT22;31358;46.008;11.144;2024-01-06T14:26:03;5.70;99.90
45643;DHT22;31358;46.008;11.144;2024-01-06T14:28:29;5.70;99.90
45643;DHT22;31358;46.008;11.144;2024-01-06T14:30:55;5.70;99.90
45643;DHT22;31358;46.008;11.144;2024-01-06T14:33:21;5.70;99.90
45643;DHT22;31358;46.008;11.144;2024-01-06T14:35:47;5.60;99.90
45643;DHT22;31358;46.008;11.144;2024-01-06T14:38:13;5.50;99.90
45643;DHT22;31358;46.008;11.144;2024-01-06T14:40:38;5.50;99.90
45643;DHT22;31358;46.008;11.144;2024-01-06T14:43:04;5.50;99.90
45643;DHT22;31358;46.008;11.144;2024-01-06T14:45:31;5.50;99.90
45643;DHT22;31358;46.008;11.144;2024-01-06T14:47:57;5.40;99.90
45643;DHT22;31358;46.008;11.144;2024-01-06T14:50:22;5.40;99.90
45643;DHT22;31358;46.008;11.144;2024-01-06T14:52:48;5.60;99.90
45643;DHT22;31358;46.008;11.144;2024-01-06T14:55:15;5.60;99.90
45643;DHT22;31358;46.008;11.144;2024-01-06T14:57:41;5.60;99.90
45643;DHT22;31358;46.008;11.144;2024-01-06T15:00:07;5.60;99.90
45643;DHT22;31358;46.008;11.144;2024-01-06T15:02:36;5.50;99.90
45643;DHT22;31358;46.008;11.144;2024-01-06T15:05:02;5.50;99.90
45643;DHT22;31358;46.008;11.144;2024-01-06T15:07:30;5.50;99.90
45643;DHT22;31358;46.008;11.144;2024-01-06T15:09:57;5.50;99.90
45643;DHT22;31358;46.008;11.144;2024-01-06T15:12:23;5.50;99.90
45643;DHT22;31358;46.008;11.144;2024-01-06T15:14:49;5.50;99.90
45643;DHT22;31358;46.008;11.144;2024-01-06T15:17:14;5.50;99.90
45643;DHT22;31358;46.008;11.144;2024-01-06T15:19:40;5.40;99.90
45643;DHT22;31358;46.008;11.144;2024-01-06T15:22:06;5.40;99.90
45643;DHT22;31358;46.008;11.144;2024-01-06T15:24:32;5.50;99.90
45643;DHT22;31358;46.008;11.144;2024-01-06T15:26:57;5.50;99.90